createdAt,value
2024-01-19T00:00:41.458Z,1014.696
2024-01-19T00:01:42.485Z,1014.717
2024-01-19T00:02:41.474Z,1014.707
2024-01-19T00:03:41.444Z,1014.756
2024-01-19T00:04:42.525Z,1014.79
2024-01-19T00:05:41.658Z,1014.775
2024-01-19T00:06:42.488Z,1014.8
2024-01-19T00:07:41.518Z,1014.822
2024-01-19T00:08:41.504Z,1014.805
2024-01-19T00:09:42.499Z,1014.781
2024-01-19T00:10:41.516Z,1014.818
2024-01-19T00:11:42.494Z,1014.82
2024-01-19T00:12:41.527Z,1014.852
2024-01-19T00:13:42.463Z,1014.854
2024-01-19T00:14:41.538Z,1014.826
2024-01-19T00:15:43.014Z,1014.825
2024-01-19T00:16:42.556Z,1014.842
2024-01-19T00:17:41.621Z,1014.853
2024-01-19T00:18:42.487Z,1014.844
2024-01-19T00:19:41.532Z,1014.864
2024-01-19T00:20:41.514Z,1014.892
2024-01-19T00:21:42.556Z,1014.901
2024-01-19T00:22:41.559Z,1014.906
2024-01-19T00:23:42.540Z,1014.919
2024-01-19T00:24:41.499Z,1014.933
2024-01-19T00:25:47.245Z,1014.884
2024-01-19T00:26:41.604Z,1014.87
2024-01-19T00:27:41.510Z,1014.863
2024-01-19T00:28:42.531Z,1014.87
2024-01-19T00:29:41.598Z,1014.888
2024-01-19T00:30:42.517Z,1014.884
2024-01-19T00:31:42.594Z,1014.848
2024-01-19T00:32:41.668Z,1014.919
2024-01-19T00:33:42.575Z,1014.893
2024-01-19T00:34:41.566Z,1014.882
2024-01-19T00:35:42.543Z,1014.921
2024-01-19T00:36:42.628Z,1014.941
2024-01-19T00:37:41.564Z,1014.914
2024-01-19T00:38:42.565Z,1014.984
2024-01-19T00:39:41.518Z,1015.006
2024-01-19T00:40:42.560Z,1015.03
2024-01-19T00:41:42.618Z,1015.006
2024-01-19T00:42:42.585Z,1015.032
2024-01-19T00:43:41.541Z,1015.057
2024-01-19T00:44:41.547Z,1015.06
2024-01-19T00:45:45.360Z,1015.099
2024-01-19T00:46:41.604Z,1015.104
2024-01-19T00:47:42.702Z,1015.094
2024-01-19T00:48:41.642Z,1015.114
2024-01-19T00:49:41.664Z,1015.125
2024-01-19T00:50:45.139Z,1015.158
2024-01-19T00:51:41.569Z,1015.157
2024-01-19T00:52:42.573Z,1015.161
2024-01-19T00:53:41.678Z,1015.167
2024-01-19T00:54:44.913Z,1015.112
2024-01-19T00:55:44.339Z,1015.107
2024-01-19T00:56:41.649Z,1015.086
2024-01-19T00:57:42.600Z,1015.12
2024-01-19T00:58:41.603Z,1015.146
2024-01-19T00:59:42.625Z,1015.175
2024-01-19T01:00:44.166Z,1015.147
2024-01-19T01:01:41.571Z,1015.181
2024-01-19T01:02:42.662Z,1015.177
2024-01-19T01:03:41.689Z,1015.177
2024-01-19T01:04:42.610Z,1015.206
2024-01-19T01:05:59.567Z,1015.22
2024-01-19T01:06:41.755Z,1015.211
2024-01-19T01:07:42.569Z,1015.249
2024-01-19T01:08:41.621Z,1015.25
2024-01-19T01:09:42.624Z,1015.253
2024-01-19T01:10:43.821Z,1015.289
2024-01-19T01:11:42.643Z,1015.296
2024-01-19T01:12:41.626Z,1015.342
2024-01-19T01:13:41.588Z,1015.369
2024-01-19T01:14:42.613Z,1015.325
2024-01-19T01:15:43.631Z,1015.358
2024-01-19T01:16:42.590Z,1015.372
2024-01-19T01:17:41.773Z,1015.325
2024-01-19T01:18:41.733Z,1015.329
2024-01-19T01:19:42.670Z,1015.316
2024-01-19T01:20:43.545Z,1015.326
2024-01-19T01:21:42.601Z,1015.346
2024-01-19T01:22:41.667Z,1015.337
2024-01-19T01:23:48.945Z,1015.378
2024-01-19T01:24:41.618Z,1015.374
2024-01-19T01:25:43.126Z,1015.345
2024-01-19T01:26:42.747Z,1015.394
2024-01-19T01:27:41.611Z,1015.387
2024-01-19T01:28:42.665Z,1015.394
2024-01-19T01:29:41.691Z,1015.404
2024-01-19T01:30:42.887Z,1015.475
2024-01-19T01:31:42.707Z,1015.442
2024-01-19T01:32:41.856Z,1015.431
2024-01-19T01:33:42.688Z,1015.47
2024-01-19T01:34:41.695Z,1015.454
2024-01-19T01:35:42.785Z,1015.476
2024-01-19T01:36:42.704Z,1015.545
2024-01-19T01:37:41.690Z,1015.546
2024-01-19T01:38:42.711Z,1015.595
2024-01-19T01:39:41.647Z,1015.579
2024-01-19T01:40:42.694Z,1015.592
2024-01-19T01:41:41.676Z,1015.606
2024-01-19T01:42:41.665Z,1015.68
2024-01-19T01:43:42.696Z,1015.741
2024-01-19T01:44:41.722Z,1015.748
2024-01-19T01:45:42.655Z,1015.786
2024-01-19T01:46:42.141Z,1015.827
2024-01-19T01:47:41.721Z,1015.88
2024-01-19T01:48:42.867Z,1015.91
2024-01-19T01:49:41.790Z,1015.909
2024-01-19T01:50:42.710Z,1015.882
2024-01-19T01:51:41.671Z,1015.908
2024-01-19T01:52:45.190Z,1015.945
2024-01-19T01:53:41.747Z,1015.974
2024-01-19T01:54:41.685Z,1015.968
2024-01-19T01:55:42.718Z,1015.93
2024-01-19T01:56:41.752Z,1015.955
2024-01-19T01:57:42.755Z,1016.006
2024-01-19T01:58:41.683Z,1015.98
2024-01-19T01:59:41.770Z,1015.991
2024-01-19T02:00:42.738Z,1016.111
2024-01-19T02:01:41.699Z,1016.115
2024-01-19T02:02:42.758Z,1016.183
2024-01-19T02:03:41.753Z,1016.23
2024-01-19T02:04:41.692Z,1016.222
2024-01-19T02:05:42.916Z,1016.278
2024-01-19T02:06:41.906Z,1016.29
2024-01-19T02:07:43.102Z,1016.394
2024-01-19T02:08:41.797Z,1016.338
2024-01-19T02:09:42.980Z,1016.333
2024-01-19T02:10:42.736Z,1016.34
2024-01-19T02:11:41.790Z,1016.313
2024-01-19T02:12:42.723Z,1016.319
2024-01-19T02:13:41.750Z,1016.272
2024-01-19T02:14:42.733Z,1016.259
2024-01-19T02:15:42.726Z,1016.301
2024-01-19T02:16:41.720Z,1016.229
2024-01-19T02:17:42.806Z,1016.212
2024-01-19T02:18:42.026Z,1016.272
2024-01-19T02:19:42.760Z,1016.292
2024-01-19T02:20:42.790Z,1016.33
2024-01-19T02:21:45.469Z,1016.281
2024-01-19T02:22:41.732Z,1016.293
2024-01-19T02:23:41.799Z,1016.284
2024-01-19T02:24:42.774Z,1016.287
2024-01-19T02:25:42.734Z,1016.258
2024-01-19T02:26:42.745Z,1016.24
2024-01-19T02:27:41.749Z,1016.265
2024-01-19T02:28:41.739Z,1016.342
2024-01-19T02:29:42.831Z,1016.303
2024-01-19T02:30:42.745Z,1016.265
2024-01-19T02:31:42.806Z,1016.341
2024-01-19T02:32:41.810Z,1016.358
2024-01-19T02:33:41.785Z,1016.368
2024-01-19T02:34:42.768Z,1016.406
2024-01-19T02:35:42.842Z,1016.457
2024-01-19T02:36:42.812Z,1016.531
2024-01-19T02:37:41.800Z,1016.468
2024-01-19T02:38:42.862Z,1016.403
2024-01-19T02:39:41.771Z,1016.432
2024-01-19T02:40:42.799Z,1016.48
2024-01-19T02:41:42.905Z,1016.489
2024-01-19T02:42:41.781Z,1016.545
2024-01-19T02:43:42.823Z,1016.577
2024-01-19T02:44:41.795Z,1016.543
2024-01-19T02:45:42.811Z,1016.497
2024-01-19T02:46:42.815Z,1016.521
2024-01-19T02:47:41.865Z,1016.661
2024-01-19T02:48:42.923Z,1016.635
2024-01-19T02:49:41.842Z,1016.661
2024-01-19T02:50:45.209Z,1016.651
2024-01-19T02:51:41.791Z,1016.608
2024-01-19T02:52:41.843Z,1016.619
2024-01-19T02:53:42.829Z,1016.649
2024-01-19T02:54:41.796Z,1016.667
2024-01-19T02:55:50.801Z,1016.698
2024-01-19T02:56:41.857Z,1016.678
2024-01-19T02:57:41.796Z,1016.728
2024-01-19T02:58:42.836Z,1016.695
2024-01-19T02:59:41.848Z,1016.747
2024-01-19T03:00:42.847Z,1016.697
2024-01-19T03:01:41.823Z,1016.676
2024-01-19T03:02:41.821Z,1016.696
2024-01-19T03:03:42.832Z,1016.711
2024-01-19T03:04:41.860Z,1016.673
2024-01-19T03:05:42.880Z,1016.695
2024-01-19T03:06:41.867Z,1016.634
2024-01-19T03:07:42.855Z,1016.636
2024-01-19T03:08:41.892Z,1016.604
2024-01-19T03:09:41.834Z,1016.634
2024-01-19T03:10:42.855Z,1016.605
2024-01-19T03:11:41.837Z,1016.615
2024-01-19T03:12:42.861Z,1016.626
2024-01-19T03:13:41.874Z,1016.608
2024-01-19T03:14:41.888Z,1016.64
2024-01-19T03:15:42.893Z,1016.65
2024-01-19T03:16:41.841Z,1016.669
2024-01-19T03:17:42.953Z,1016.665
2024-01-19T03:18:41.874Z,1016.671
2024-01-19T03:19:45.228Z,1016.716
2024-01-19T03:20:42.879Z,1016.688
2024-01-19T03:21:41.906Z,1016.775
2024-01-19T03:22:42.847Z,1016.776
2024-01-19T03:23:41.924Z,1016.79
2024-01-19T03:24:42.856Z,1016.845
2024-01-19T03:25:42.904Z,1016.851
2024-01-19T03:26:41.920Z,1016.83
2024-01-19T03:27:42.880Z,1016.813
2024-01-19T03:28:41.910Z,1016.808
2024-01-19T03:29:42.904Z,1016.759
2024-01-19T03:30:42.888Z,1016.759
2024-01-19T03:31:41.874Z,1016.793
2024-01-19T03:32:42.944Z,1016.886
2024-01-19T03:33:41.945Z,1016.838
2024-01-19T03:34:42.880Z,1016.919
2024-01-19T03:35:42.923Z,1016.905
2024-01-19T03:36:42.901Z,1016.938
2024-01-19T03:37:41.916Z,1016.957
2024-01-19T03:38:41.905Z,1017.024
2024-01-19T03:39:42.934Z,1016.998
2024-01-19T03:40:42.926Z,1016.984
2024-01-19T03:41:42.935Z,1017.01
2024-01-19T03:42:41.877Z,1017.05
2024-01-19T03:43:41.920Z,1017.005
2024-01-19T03:44:42.924Z,1016.998
2024-01-19T03:45:42.919Z,1017.01
2024-01-19T03:46:42.930Z,1016.994
2024-01-19T03:47:41.996Z,1017.016
2024-01-19T03:48:45.452Z,1016.944
2024-01-19T03:49:41.927Z,1017.039
2024-01-19T03:50:42.968Z,1016.993
2024-01-19T03:51:42.957Z,1017.039
2024-01-19T03:52:41.947Z,1017.047
2024-01-19T03:53:42.992Z,1017.06
2024-01-19T03:54:41.921Z,1017.064
2024-01-19T03:55:42.953Z,1017.04
2024-01-19T03:56:43.026Z,1017.022
2024-01-19T03:57:41.911Z,1017.048
2024-01-19T03:58:42.917Z,1017.027
2024-01-19T03:59:41.986Z,1017.021
2024-01-19T04:00:43.008Z,1017.026
2024-01-19T04:01:42.954Z,1017.041
2024-01-19T04:02:42.112Z,1017.013
2024-01-19T04:03:43.058Z,1017.022
2024-01-19T04:04:41.976Z,1017.048
2024-01-19T04:05:44.375Z,1017.046
2024-01-19T04:06:41.991Z,1017.047
2024-01-19T04:07:41.936Z,1017.011
2024-01-19T04:08:43.006Z,1017.036
2024-01-19T04:09:41.968Z,1017.037
2024-01-19T04:10:42.978Z,1017.055
2024-01-19T04:11:42.022Z,1017.074
2024-01-19T04:12:41.940Z,1017.099
2024-01-19T04:13:42.963Z,1017.087
2024-01-19T04:14:42.014Z,1017.139
2024-01-19T04:15:42.945Z,1017.106
2024-01-19T04:16:41.945Z,1017.102
2024-01-19T04:17:45.372Z,1017.078
2024-01-19T04:18:42.033Z,1017.098
2024-01-19T04:19:42.040Z,1017.13
2024-01-19T04:20:43.052Z,1017.103
2024-01-19T04:21:41.967Z,1017.066
2024-01-19T04:22:42.981Z,1017.104
2024-01-19T04:23:42.045Z,1017.086
2024-01-19T04:24:41.962Z,1017.088
2024-01-19T04:25:42.987Z,1017.049
2024-01-19T04:26:42.034Z,1017.112
2024-01-19T04:27:43.007Z,1017.106
2024-01-19T04:28:42.020Z,1017.094
2024-01-19T04:29:42.046Z,1017.096
2024-01-19T04:30:43.007Z,1017.14
2024-01-19T04:31:42.012Z,1017.188
2024-01-19T04:32:43.096Z,1017.169
2024-01-19T04:33:42.083Z,1017.218
2024-01-19T04:34:43.051Z,1017.277
2024-01-19T04:35:43.101Z,1017.273
2024-01-19T04:36:41.991Z,1017.255
2024-01-19T04:37:42.984Z,1017.283
2024-01-19T04:38:42.000Z,1017.26
2024-01-19T04:39:42.985Z,1017.232
2024-01-19T04:40:43.022Z,1017.232
2024-01-19T04:41:42.080Z,1017.134
2024-01-19T04:42:43.036Z,1017.165
2024-01-19T04:43:42.050Z,1017.188
2024-01-19T04:44:43.016Z,1017.219
2024-01-19T04:45:43.029Z,1017.193
2024-01-19T04:46:45.420Z,1017.191
2024-01-19T04:47:42.113Z,1017.253
2024-01-19T04:48:42.249Z,1017.255
2024-01-19T04:49:43.001Z,1017.2
2024-01-19T04:50:43.064Z,1017.208
2024-01-19T04:51:43.070Z,1017.224
2024-01-19T04:52:42.024Z,1017.219
2024-01-19T04:53:42.118Z,1017.255
2024-01-19T04:54:43.093Z,1017.273
2024-01-19T04:55:43.043Z,1017.292
2024-01-19T04:56:45.202Z,1017.311
2024-01-19T04:57:42.028Z,1017.313
2024-01-19T04:58:42.084Z,1017.294
2024-01-19T04:59:43.082Z,1017.331
2024-01-19T05:00:43.051Z,1017.393
2024-01-19T05:01:43.024Z,1017.358
2024-01-19T05:02:42.104Z,1017.374
2024-01-19T05:03:43.075Z,1017.462
2024-01-19T05:04:42.111Z,1017.449
2024-01-19T05:05:43.119Z,1017.534
2024-01-19T05:06:43.134Z,1017.519
2024-01-19T05:07:42.056Z,1017.626
2024-01-19T05:08:43.139Z,1017.558
2024-01-19T05:09:42.060Z,1017.558
2024-01-19T05:10:53.034Z,1017.578
2024-01-19T05:11:43.148Z,1017.646
2024-01-19T05:12:42.065Z,1017.674
2024-01-19T05:13:43.110Z,1017.727
2024-01-19T05:14:42.078Z,1017.714
2024-01-19T05:15:46.381Z,1017.662
2024-01-19T05:16:42.107Z,1017.682
2024-01-19T05:17:42.199Z,1017.704
2024-01-19T05:18:43.150Z,1017.72
2024-01-19T05:19:42.140Z,1017.753
2024-01-19T05:20:43.102Z,1017.816
2024-01-19T05:21:42.076Z,1017.803
2024-01-19T05:22:42.120Z,1017.865
2024-01-19T05:23:43.196Z,1017.814
2024-01-19T05:24:42.085Z,1017.857
2024-01-19T05:25:43.111Z,1017.817
2024-01-19T05:26:42.162Z,1017.815
2024-01-19T05:27:42.094Z,1017.869
2024-01-19T05:28:43.141Z,1017.831
2024-01-19T05:29:42.251Z,1017.822
2024-01-19T05:30:43.090Z,1017.865
2024-01-19T05:31:42.159Z,1017.804
2024-01-19T05:32:43.249Z,1017.81
2024-01-19T05:33:42.275Z,1017.809
2024-01-19T05:34:42.124Z,1017.864
2024-01-19T05:35:43.176Z,1017.835
2024-01-19T05:36:42.118Z,1017.869
2024-01-19T05:37:43.097Z,1017.86
2024-01-19T05:38:42.154Z,1017.836
2024-01-19T05:39:42.114Z,1017.819
2024-01-19T05:40:43.146Z,1017.851
2024-01-19T05:41:42.193Z,1017.907
2024-01-19T05:42:43.107Z,1017.892
2024-01-19T05:43:42.164Z,1017.942
2024-01-19T05:44:46.443Z,1017.97
2024-01-19T05:45:43.124Z,1018.018
2024-01-19T05:46:42.168Z,1018.009
2024-01-19T05:47:43.222Z,1018.029
2024-01-19T05:48:42.214Z,1018.03
2024-01-19T05:49:43.262Z,1018.02
2024-01-19T05:50:43.258Z,1018.075
2024-01-19T05:51:42.144Z,1018.083
2024-01-19T05:52:43.220Z,1018.125
2024-01-19T05:53:42.230Z,1018.111
2024-01-19T05:54:43.177Z,1018.162
2024-01-19T05:55:43.153Z,1018.24
2024-01-19T05:56:42.214Z,1018.189
2024-01-19T05:57:43.145Z,1018.21
2024-01-19T05:58:42.152Z,1018.252
2024-01-19T05:59:43.220Z,1018.293
2024-01-19T06:00:43.245Z,1018.265
2024-01-19T06:01:44.579Z,1018.283
2024-01-19T06:02:42.221Z,1018.287
2024-01-19T06:03:42.187Z,1018.278
2024-01-19T06:04:43.190Z,1018.303
2024-01-19T06:05:43.268Z,1018.3
2024-01-19T06:06:43.266Z,1018.31
2024-01-19T06:07:42.187Z,1018.345
2024-01-19T06:08:42.262Z,1018.389
2024-01-19T06:09:45.494Z,1018.346
2024-01-19T06:10:44.669Z,1018.361
2024-01-19T06:11:43.237Z,1018.353
2024-01-19T06:12:42.187Z,1018.36
2024-01-19T06:14:00.517Z,1018.394
2024-01-19T06:14:42.220Z,1018.406
2024-01-19T06:15:43.170Z,1018.431
2024-01-19T06:16:43.225Z,1018.437
2024-01-19T06:17:42.280Z,1018.428
2024-01-19T06:18:43.332Z,1018.436
2024-01-19T06:19:42.301Z,1018.396
2024-01-19T06:20:43.334Z,1018.408
2024-01-19T06:21:43.220Z,1018.427
2024-01-19T06:22:42.247Z,1018.428
2024-01-19T06:23:43.256Z,1018.409
2024-01-19T06:24:42.218Z,1018.409
2024-01-19T06:25:43.409Z,1018.408
2024-01-19T06:26:43.254Z,1018.422
2024-01-19T06:27:42.202Z,1018.406
2024-01-19T06:28:43.256Z,1018.448
2024-01-19T06:29:42.228Z,1018.456
2024-01-19T06:30:44.662Z,1018.441
2024-01-19T06:31:42.270Z,1018.46
2024-01-19T06:32:42.305Z,1018.499
2024-01-19T06:33:43.318Z,1018.455
2024-01-19T06:34:42.219Z,1018.415
2024-01-19T06:35:43.400Z,1018.464
2024-01-19T06:36:42.226Z,1018.472
2024-01-19T06:37:42.273Z,1018.512
2024-01-19T06:38:43.342Z,1018.47
2024-01-19T06:39:42.234Z,1018.476
2024-01-19T06:40:43.235Z,1018.494
2024-01-19T06:41:42.306Z,1018.491
2024-01-19T06:42:45.990Z,1018.498
2024-01-19T06:43:42.275Z,1018.528
2024-01-19T06:44:42.310Z,1018.551
2024-01-19T06:45:43.294Z,1018.562
2024-01-19T06:46:42.293Z,1018.556
2024-01-19T06:47:43.397Z,1018.575
2024-01-19T06:48:42.358Z,1018.564
2024-01-19T06:49:42.280Z,1018.603
2024-01-19T06:50:43.281Z,1018.679
2024-01-19T06:51:42.269Z,1018.677
2024-01-19T06:52:43.295Z,1018.677
2024-01-19T06:53:42.309Z,1018.714
2024-01-19T06:54:42.255Z,1018.749
2024-01-19T06:55:43.301Z,1018.755
2024-01-19T06:56:42.362Z,1018.831
2024-01-19T06:57:43.327Z,1018.845
2024-01-19T06:58:42.325Z,1018.863
2024-01-19T06:59:44.969Z,1018.892
2024-01-19T07:00:46.182Z,1018.903
2024-01-19T07:01:42.273Z,1018.908
2024-01-19T07:02:43.345Z,1018.921
2024-01-19T07:03:42.344Z,1018.956
2024-01-19T07:04:43.349Z,1018.935
2024-01-19T07:05:43.369Z,1018.938
2024-01-19T07:06:42.431Z,1018.966
2024-01-19T07:07:43.313Z,1018.939
2024-01-19T07:08:42.346Z,1018.966
2024-01-19T07:09:43.311Z,1018.976
2024-01-19T07:10:43.305Z,1018.992
2024-01-19T07:11:45.719Z,1019.037
2024-01-19T07:12:42.286Z,1019.068
2024-01-19T07:13:42.292Z,1019.113
2024-01-19T07:14:43.397Z,1019.149
2024-01-19T07:15:43.291Z,1019.171
2024-01-19T07:16:43.353Z,1019.216
2024-01-19T07:17:42.384Z,1019.277
2024-01-19T07:18:42.403Z,1019.323
2024-01-19T07:19:43.594Z,1019.427
2024-01-19T07:20:43.362Z,1019.4
2024-01-19T07:21:43.317Z,1019.419
2024-01-19T07:22:42.358Z,1019.427
2024-01-19T07:23:42.341Z,1019.404
2024-01-19T07:24:43.360Z,1019.455
2024-01-19T07:25:43.322Z,1019.483
2024-01-19T07:26:43.379Z,1019.497
2024-01-19T07:27:42.317Z,1019.487
2024-01-19T07:28:44.664Z,1019.468
2024-01-19T07:29:44.824Z,1019.476
2024-01-19T07:30:43.360Z,1019.449
2024-01-19T07:31:43.412Z,1019.477
2024-01-19T07:32:52.255Z,1019.519
2024-01-19T07:33:43.467Z,1019.493
2024-01-19T07:34:42.407Z,1019.532
2024-01-19T07:35:43.542Z,1019.522
2024-01-19T07:36:43.491Z,1019.518
2024-01-19T07:37:42.359Z,1019.539
2024-01-19T07:38:43.446Z,1019.572
2024-01-19T07:39:42.371Z,1019.56
2024-01-19T07:40:49.959Z,1019.552
2024-01-19T07:41:42.527Z,1019.596
2024-01-19T07:42:53.241Z,1019.622
2024-01-19T07:43:43.396Z,1019.592
2024-01-19T07:44:42.454Z,1019.598
2024-01-19T07:46:06.563Z,1019.635
2024-01-19T07:46:42.409Z,1019.659
2024-01-19T07:47:53.269Z,1019.667
2024-01-19T07:48:43.778Z,1019.655
2024-01-19T07:49:42.414Z,1019.635
2024-01-19T07:50:43.409Z,1019.655
2024-01-19T07:51:43.369Z,1019.684
2024-01-19T07:52:42.387Z,1019.684
2024-01-19T07:53:43.396Z,1019.699
2024-01-19T07:54:42.372Z,1019.747
2024-01-19T07:55:43.380Z,1019.839
2024-01-19T07:56:42.431Z,1019.87
2024-01-19T07:57:43.433Z,1019.927
2024-01-19T07:58:42.437Z,1019.957
2024-01-19T07:59:42.498Z,1019.945
2024-01-19T08:00:43.548Z,1019.967
2024-01-19T08:01:42.399Z,1019.952
2024-01-19T08:02:43.618Z,1019.944
2024-01-19T08:03:42.452Z,1019.924
2024-01-19T08:04:42.402Z,1019.929
2024-01-19T08:05:43.484Z,1019.861
2024-01-19T08:06:42.467Z,1019.827
2024-01-19T08:07:43.453Z,1019.86
2024-01-19T08:08:42.453Z,1019.858
2024-01-19T08:09:45.829Z,1019.94
2024-01-19T08:10:43.460Z,1019.883
2024-01-19T08:11:42.481Z,1019.891
2024-01-19T08:12:43.453Z,1019.913
2024-01-19T08:13:42.443Z,1019.893
2024-01-19T08:14:43.518Z,1019.957
2024-01-19T08:15:43.487Z,1019.983
2024-01-19T08:16:42.434Z,1019.979
2024-01-19T08:18:43.646Z,1020.083
2024-01-19T08:19:43.547Z,1020.159
2024-01-19T08:20:43.538Z,1020.118
2024-01-19T08:21:42.457Z,1020.148
2024-01-19T08:22:43.539Z,1020.153
2024-01-19T08:23:42.457Z,1020.175
2024-01-19T08:24:43.572Z,1020.194
2024-01-19T08:25:43.523Z,1020.221
2024-01-19T08:26:43.507Z,1020.243
2024-01-19T08:27:42.457Z,1020.318
2024-01-19T08:28:42.463Z,1020.323
2024-01-19T08:29:43.489Z,1020.35
2024-01-19T08:30:43.603Z,1020.36
2024-01-19T08:31:43.607Z,1020.329
2024-01-19T08:32:42.532Z,1020.346
2024-01-19T08:33:42.635Z,1020.329
2024-01-19T08:34:43.580Z,1020.308
2024-01-19T08:35:43.498Z,1020.378
2024-01-19T08:36:43.568Z,1020.362
2024-01-19T08:37:42.561Z,1020.429
2024-01-19T08:38:45.932Z,1020.424
2024-01-19T08:39:42.484Z,1020.429
2024-01-19T08:40:43.517Z,1020.445
2024-01-19T08:41:43.694Z,1020.484
2024-01-19T08:42:42.492Z,1020.51
2024-01-19T08:43:43.556Z,1020.541
2024-01-19T08:44:42.532Z,1020.559
2024-01-19T08:45:43.566Z,1020.568
2024-01-19T08:46:43.511Z,1020.555
2024-01-19T08:47:42.573Z,1020.61
2024-01-19T08:48:43.668Z,1020.62
2024-01-19T08:49:42.567Z,1020.631
2024-01-19T08:50:43.586Z,1020.621
2024-01-19T08:51:44.879Z,1020.656
2024-01-19T08:52:53.422Z,1020.683
2024-01-19T08:53:43.554Z,1020.673
2024-01-19T08:54:42.504Z,1020.723
2024-01-19T08:55:43.614Z,1020.727
2024-01-19T08:56:49.295Z,1020.774
2024-01-19T08:57:43.565Z,1020.775
2024-01-19T08:58:43.513Z,1020.854
2024-01-19T08:59:42.629Z,1020.859
2024-01-19T09:00:43.579Z,1020.866
2024-01-19T09:01:42.518Z,1020.875
2024-01-19T09:02:49.740Z,1020.872
2024-01-19T09:03:43.567Z,1020.896
2024-01-19T09:04:42.586Z,1020.952
2024-01-19T09:05:43.647Z,1020.936
2024-01-19T09:06:45.388Z,1020.961
2024-01-19T09:07:45.963Z,1020.991
2024-01-19T09:08:42.655Z,1020.993
2024-01-19T09:09:42.526Z,1021.008
2024-01-19T09:10:43.580Z,1020.986
2024-01-19T09:11:42.639Z,1021.022
2024-01-19T09:12:43.539Z,1021.016
2024-01-19T09:13:42.559Z,1021.047
2024-01-19T09:14:42.571Z,1021.083
2024-01-19T09:15:43.533Z,1021.055
2024-01-19T09:16:42.579Z,1021.095
2024-01-19T09:17:43.624Z,1021.105
2024-01-19T09:18:42.849Z,1021.086
2024-01-19T09:19:42.566Z,1021.125
2024-01-19T09:20:43.649Z,1021.128
2024-01-19T09:21:42.552Z,1021.11
2024-01-19T09:22:43.583Z,1021.169
2024-01-19T09:23:42.575Z,1021.191
2024-01-19T09:24:46.402Z,1021.266
2024-01-19T09:25:43.621Z,1021.214
2024-01-19T09:26:42.662Z,1021.232
2024-01-19T09:27:43.555Z,1021.233
2024-01-19T09:28:42.602Z,1021.255
2024-01-19T09:29:43.636Z,1021.256
2024-01-19T09:30:43.644Z,1021.262
2024-01-19T09:31:42.612Z,1021.277
2024-01-19T09:32:43.713Z,1021.252
2024-01-19T09:33:42.679Z,1021.225
2024-01-19T09:35:44.768Z,1021.274
2024-01-19T09:36:46.054Z,1021.261
2024-01-19T09:37:42.575Z,1021.312
2024-01-19T09:38:42.656Z,1021.306
2024-01-19T09:39:43.596Z,1021.296
2024-01-19T09:40:43.629Z,1021.33
2024-01-19T09:41:43.705Z,1021.342
2024-01-19T09:42:42.608Z,1021.369
2024-01-19T09:43:42.595Z,1021.357
2024-01-19T09:44:43.661Z,1021.353
2024-01-19T09:45:43.630Z,1021.388
2024-01-19T09:48:43.737Z,1021.504
2024-01-19T09:49:43.738Z,1021.537
2024-01-19T09:50:43.718Z,1021.598
2024-01-19T09:51:43.803Z,1021.606
2024-01-19T09:52:42.678Z,1021.673
2024-01-19T09:53:48.661Z,1021.68
2024-01-19T09:54:42.652Z,1021.639
2024-01-19T09:55:43.770Z,1021.686
2024-01-19T09:56:43.731Z,1021.721
2024-01-19T09:57:42.626Z,1021.74
2024-01-19T09:58:43.644Z,1021.705
2024-01-19T09:59:42.702Z,1021.732
2024-01-19T10:00:43.674Z,1021.728
2024-01-19T10:01:43.621Z,1021.743
2024-01-19T10:02:42.699Z,1021.772
2024-01-19T10:03:43.719Z,1021.79
2024-01-19T10:04:42.724Z,1021.781
2024-01-19T10:05:46.350Z,1021.814
2024-01-19T10:06:42.731Z,1021.844
2024-01-19T10:07:42.657Z,1021.945
2024-01-19T10:08:43.695Z,1021.939
2024-01-19T10:09:42.657Z,1021.941
2024-01-19T10:10:43.652Z,1021.887
2024-01-19T10:11:42.780Z,1021.93
2024-01-19T10:12:42.657Z,1021.931
2024-01-19T10:13:43.688Z,1021.965
2024-01-19T10:14:42.725Z,1022.021
2024-01-19T10:15:43.661Z,1021.968
2024-01-19T10:16:42.664Z,1022.011
2024-01-19T10:17:42.808Z,1022.049
2024-01-19T10:18:43.892Z,1022.087
2024-01-19T10:19:42.712Z,1022.042
2024-01-19T10:20:43.704Z,1022.094
2024-01-19T10:21:42.665Z,1022.128
2024-01-19T10:22:55.721Z,1022.129
2024-01-19T10:23:42.736Z,1022.162
2024-01-19T10:24:42.678Z,1022.209
2024-01-19T10:25:43.746Z,1022.161
2024-01-19T10:26:42.759Z,1022.168
2024-01-19T10:27:44.786Z,1022.265
2024-01-19T10:28:42.739Z,1022.275
2024-01-19T10:29:42.716Z,1022.259
2024-01-19T10:30:43.734Z,1022.281
2024-01-19T10:31:42.710Z,1022.218
2024-01-19T10:32:43.799Z,1022.217
2024-01-19T10:33:42.917Z,1022.241
2024-01-19T10:35:00.050Z,1022.253
2024-01-19T10:35:43.714Z,1022.226
2024-01-19T10:36:42.703Z,1022.208
2024-01-19T10:37:43.791Z,1022.21
2024-01-19T10:38:42.717Z,1022.179
2024-01-19T10:39:43.712Z,1022.24
2024-01-19T10:40:43.707Z,1022.208
2024-01-19T10:41:42.812Z,1022.171
2024-01-19T10:42:43.821Z,1022.17
2024-01-19T10:43:42.718Z,1022.201
2024-01-19T10:44:43.823Z,1022.191
2024-01-19T10:45:43.741Z,1022.15
2024-01-19T10:46:42.788Z,1022.19
2024-01-19T10:47:43.844Z,1022.215
2024-01-19T10:48:42.817Z,1022.198
2024-01-19T10:49:43.775Z,1022.276
2024-01-19T10:50:43.808Z,1022.331
2024-01-19T10:51:43.838Z,1022.312
2024-01-19T10:52:42.729Z,1022.314
2024-01-19T10:53:42.798Z,1022.312
2024-01-19T10:54:43.760Z,1022.341
2024-01-19T10:55:43.792Z,1022.284
2024-01-19T10:56:43.968Z,1022.343
2024-01-19T10:57:42.742Z,1022.386
2024-01-19T10:58:42.797Z,1022.41
2024-01-19T10:59:43.774Z,1022.447
2024-01-19T11:00:43.841Z,1022.461
2024-01-19T11:01:43.929Z,1022.49
2024-01-19T11:02:42.789Z,1022.446
2024-01-19T11:03:46.695Z,1022.474
2024-01-19T11:04:42.761Z,1022.566
2024-01-19T11:05:43.952Z,1022.594
2024-01-19T11:06:43.966Z,1022.586
2024-01-19T11:07:42.814Z,1022.54
2024-01-19T11:08:43.793Z,1022.614
2024-01-19T11:09:42.766Z,1022.606
2024-01-19T11:10:46.144Z,1022.62
2024-01-19T11:11:43.891Z,1022.617
2024-01-19T11:12:42.785Z,1022.575
2024-01-19T11:13:43.851Z,1022.583
2024-01-19T11:14:42.823Z,1022.568
2024-01-19T11:15:43.821Z,1022.538
2024-01-19T11:16:43.783Z,1022.566
2024-01-19T11:17:42.894Z,1022.535
2024-01-19T11:18:43.993Z,1022.599
2024-01-19T11:19:42.803Z,1022.546
2024-01-19T11:20:43.847Z,1022.559
2024-01-19T11:21:42.808Z,1022.546
2024-01-19T11:22:44.843Z,1022.539
2024-01-19T11:23:44.072Z,1022.551
2024-01-19T11:24:42.885Z,1022.532
2024-01-19T11:25:43.947Z,1022.479
2024-01-19T11:26:42.947Z,1022.559
2024-01-19T11:27:42.916Z,1022.458
2024-01-19T11:28:43.839Z,1022.508
2024-01-19T11:29:42.917Z,1022.511
2024-01-19T11:30:43.931Z,1022.476
2024-01-19T11:31:42.866Z,1022.49
2024-01-19T11:32:46.438Z,1022.466
2024-01-19T11:33:43.040Z,1022.439
2024-01-19T11:34:43.069Z,1022.423
2024-01-19T11:35:44.019Z,1022.433
2024-01-19T11:36:42.876Z,1022.444
2024-01-19T11:37:48.540Z,1022.42
2024-01-19T11:38:42.861Z,1022.419
2024-01-19T11:39:42.846Z,1022.409
2024-01-19T11:40:43.856Z,1022.431
2024-01-19T11:41:42.911Z,1022.397
2024-01-19T11:42:50.636Z,1022.446
2024-01-19T11:43:42.838Z,1022.386
2024-01-19T11:44:42.921Z,1022.393
2024-01-19T11:45:43.900Z,1022.432
2024-01-19T11:46:42.841Z,1022.454
2024-01-19T11:47:44.264Z,1022.439
2024-01-19T11:48:43.003Z,1022.434
2024-01-19T11:49:50.745Z,1022.408
2024-01-19T11:50:43.870Z,1022.442